CheckWX is a tool to help pilots better visualize weather data.  It is not intended as a substitute for an official pre-flight weather briefing.

16:29:09 UTC

KAUS TAF
Austin-Bergstrom International Airport
Austin, Texas, USA
KAUS 161120Z 1612/1718 VRB03KT P6SM SCT070 SCT250 FM161700 06008KT P6SM SCT070 SCT250 FM170000 09007KT P6SM BKN070 FM170200 12004KT P6SM SCT070 SCT250 FM171200 05006KT P6SM BKN025

Sep-16@
12:00 UTC

Sep-16 @ 12:00 UTC

Sep-16@
17:00 UTC

Sep-16 @ 17:00 UTC

KAUS 161120Z 1612/1718 VRB03KT P6SM SCT070 SCT250
Wind
  • Variable at 3 KTS
Cloud Levels
  • Scattered at 7,000' AGL
  • Scattered at 25,000' AGL

Sep-16@
17:00 UTC

Sep-16 @ 17:00 UTC

Sep-17@
00:00 UTC

Sep-17 @ 00:00 UTC

FM161700 06008KT P6SM SCT070 SCT250

From

From Standard forecast or significant change

Wind
  • 060° at 8 KTS
Cloud Levels
  • Scattered at 7,000' AGL
  • Scattered at 25,000' AGL

Sep-17@
00:00 UTC

Sep-17 @ 00:00 UTC

Sep-17@
02:00 UTC

Sep-17 @ 02:00 UTC

FM170000 09007KT P6SM BKN070

From

From Standard forecast or significant change

Wind
  • 090° at 7 KTS
Cloud Levels
  • Broken at 7,000' AGL

Sep-17@
02:00 UTC

Sep-17 @ 02:00 UTC

Sep-17@
12:00 UTC

Sep-17 @ 12:00 UTC

FM170200 12004KT P6SM SCT070 SCT250

From

From Standard forecast or significant change

Wind
  • 120° at 4 KTS
Cloud Levels
  • Scattered at 7,000' AGL
  • Scattered at 25,000' AGL

Sep-17@
12:00 UTC

Sep-17 @ 12:00 UTC

Sep-17@
18:00 UTC

Sep-17 @ 18:00 UTC

FM171200 05006KT P6SM BKN025

From

From Standard forecast or significant change

Wind
  • 050° at 6 KTS
Cloud Levels
  • Broken at 2,500' AGL